Terminal Aerodrome Forecast
Issued by NWS

Home | Current Version | Previous Version | Text Only | Print | Product List | Glossary On
Versions: 1 2 3 4 5 6 7 8 9 10 11 12 13 14 15 16 17 18 19 20 21 22 23 24 25 26 27 28 29 30
460
FTUS41 KBOX 072343
TAFFMH
TAF
KFMH 072343Z 0800/0824 06004KT P6SM OVC200
     FM080200 06008KT P6SM OVC140
     FM080600 06014KT P6SM VCSH OVC025
     FM080800 05015G24KT 2SM -SN BR OVC025
     FM081000 05015G26KT 1/2SM SN FG OVC015
     FM081200 04016G27KT 1/4SM +SN FG OVC015 WS020/04045KT
     FM081900 02021G44KT 1/2SM SN OVC015 WS020/02045KT
     FM082300 02014G35KT 1/2SM SN OVC015 WS020/02040KT=

USA.gov is the U.S. government's official web portal to all federal, state and local government web resources and services.